createdAt,value
2017-08-14T00:00:39.414Z,1024.19
2017-08-14T00:01:48.616Z,1024.21
2017-08-14T00:02:57.497Z,1024.19
2017-08-14T00:04:06.858Z,1024.21
2017-08-14T00:05:16.716Z,1024.27
2017-08-14T00:06:26.243Z,1024.22
2017-08-14T00:07:35.775Z,1024.25
2017-08-14T00:08:44.980Z,1024.24
2017-08-14T00:09:54.180Z,1024.29
2017-08-14T00:11:03.380Z,1024.29
2017-08-14T00:12:12.902Z,1024.27
2017-08-14T00:13:22.105Z,1024.28
2017-08-14T00:14:30.981Z,1024.3
2017-08-14T00:15:40.820Z,1024.3
2017-08-14T00:16:50.025Z,1024.24
2017-08-14T00:17:58.920Z,1024.25
2017-08-14T00:19:08.127Z,1024.25
2017-08-14T00:20:17.651Z,1024.23
2017-08-14T00:21:27.652Z,1024.28
2017-08-14T00:22:36.856Z,1024.3
2017-08-14T00:23:45.733Z,1024.22
2017-08-14T00:24:54.936Z,1024.27
2017-08-14T00:26:03.817Z,1024.23
2017-08-14T00:27:13.645Z,1024.23
2017-08-14T00:28:23.493Z,1024.18
2017-08-14T00:29:32.698Z,1024.26
2017-08-14T00:30:42.227Z,1024.27
2017-08-14T00:31:51.108Z,1024.26
2017-08-14T00:33:00.138Z,1024.28
2017-08-14T00:34:09.673Z,1024.26
2017-08-14T00:35:18.976Z,1024.24
2017-08-14T00:36:28.828Z,1024.23
2017-08-14T00:37:38.038Z,1024.25
2017-08-14T00:38:47.439Z,1024.24
2017-08-14T00:39:56.642Z,1024.27
2017-08-14T00:41:05.849Z,1024.25
2017-08-14T00:42:15.381Z,1024.27
2017-08-14T00:43:24.585Z,1024.26
2017-08-14T00:44:33.939Z,1024.21
2017-08-14T00:45:43.142Z,1024.23
2017-08-14T00:46:52.355Z,1024.19
2017-08-14T00:48:01.574Z,1024.22
2017-08-14T00:49:11.107Z,1024.18
2017-08-14T00:50:20.463Z,1024.21
2017-08-14T00:51:29.992Z,1024.21
2017-08-14T00:52:39.198Z,1024.23
2017-08-14T00:53:48.087Z,1024.19
2017-08-14T00:54:57.612Z,1024.19
2017-08-14T00:56:07.621Z,1024.22
2017-08-14T00:57:17.145Z,1024.18
2017-08-14T00:58:26.023Z,1024.21
2017-08-14T00:59:35.225Z,1024.17
2017-08-14T01:00:44.427Z,1024.14
2017-08-14T01:01:54.006Z,1024.16
2017-08-14T01:03:02.887Z,1024.14
2017-08-14T01:04:12.450Z,1024.15
2017-08-14T01:05:21.342Z,1024.14
2017-08-14T01:06:30.869Z,1024.13
2017-08-14T01:07:40.875Z,1024.15
2017-08-14T01:08:50.408Z,1024.13
2017-08-14T01:09:59.285Z,1024.09
2017-08-14T01:11:08.810Z,1024.08
2017-08-14T01:12:18.014Z,1024.12
2017-08-14T01:13:27.049Z,1024.06
2017-08-14T01:14:36.258Z,1024.07
2017-08-14T01:15:45.471Z,1024.1
2017-08-14T01:16:54.354Z,1024.07
2017-08-14T01:18:03.577Z,1024.03
2017-08-14T01:19:12.507Z,1024.05
2017-08-14T01:20:21.393Z,1024.06
2017-08-14T01:21:30.924Z,1024.05
2017-08-14T01:22:39.807Z,1024.07
2017-08-14T01:23:49.654Z,1024.1
2017-08-14T01:24:58.586Z,1024.08
2017-08-14T01:26:07.792Z,1024.08
2017-08-14T01:27:16.992Z,1024.07
2017-08-14T01:28:25.872Z,1024.07
2017-08-14T01:29:35.071Z,1024.09
2017-08-14T01:30:44.429Z,1024.05
2017-08-14T01:31:53.630Z,1024.06
2017-08-14T01:33:02.832Z,1024.12
2017-08-14T01:34:12.032Z,1024.1
2017-08-14T01:35:21.237Z,1024.1
2017-08-14T01:36:31.063Z,1024.1
2017-08-14T01:37:40.266Z,1024.13
2017-08-14T01:38:49.466Z,1024.12
2017-08-14T01:39:59.644Z,1024.09
2017-08-14T01:41:09.176Z,1024.12
2017-08-14T01:42:19.325Z,1024.05
2017-08-14T01:43:28.531Z,1024.08
2017-08-14T01:44:38.704Z,1024.03
2017-08-14T01:45:47.581Z,1024.04
2017-08-14T01:46:57.424Z,1024.05
2017-08-14T01:48:07.245Z,1024
2017-08-14T01:49:16.126Z,1024.02
2017-08-14T01:50:25.004Z,1023.99
2017-08-14T01:51:33.877Z,1024.04
2017-08-14T01:52:43.079Z,1024.01
2017-08-14T01:53:52.051Z,1024.02
2017-08-14T01:55:00.935Z,1024.04
2017-08-14T01:56:10.785Z,1024.02
2017-08-14T01:57:19.662Z,1024.01
2017-08-14T01:58:28.542Z,1023.96
2017-08-14T01:59:38.546Z,1023.99
2017-08-14T02:00:47.758Z,1023.99
2017-08-14T02:01:56.641Z,1023.96
2017-08-14T02:03:05.849Z,1023.94
2017-08-14T02:04:14.726Z,1023.95
2017-08-14T02:05:24.676Z,1023.98
2017-08-14T02:06:33.898Z,1023.99
2017-08-14T02:07:43.424Z,1023.96
2017-08-14T02:08:52.626Z,1023.91
2017-08-14T02:10:02.152Z,1023.97
2017-08-14T02:11:11.404Z,1023.97
2017-08-14T02:12:20.613Z,1023.96
2017-08-14T02:13:30.143Z,1023.97
2017-08-14T02:14:39.347Z,1024
2017-08-14T02:15:48.224Z,1023.95
2017-08-14T02:16:57.354Z,1023.97
2017-08-14T02:18:06.888Z,1024.01
2017-08-14T02:19:16.423Z,1024.03
2017-08-14T02:20:25.299Z,1023.99
2017-08-14T02:21:34.174Z,1024.01
2017-08-14T02:22:43.200Z,1023.97
2017-08-14T02:23:52.408Z,1023.96
2017-08-14T02:25:01.283Z,1023.95
2017-08-14T02:26:10.167Z,1023.96
2017-08-14T02:27:19.368Z,1023.91
2017-08-14T02:28:29.194Z,1023.9
2017-08-14T02:29:38.072Z,1023.93
2017-08-14T02:30:47.599Z,1023.9
2017-08-14T02:31:57.126Z,1023.89
2017-08-14T02:33:06.663Z,1023.92
2017-08-14T02:34:16.287Z,1023.91
2017-08-14T02:35:25.167Z,1023.9
2017-08-14T02:36:34.716Z,1023.93
2017-08-14T02:37:44.260Z,1023.91
2017-08-14T02:38:53.465Z,1023.9
2017-08-14T02:40:03.148Z,1023.87
2017-08-14T02:41:12.024Z,1023.87
2017-08-14T02:42:21.877Z,1023.88
2017-08-14T02:43:31.429Z,1023.87
2017-08-14T02:44:40.640Z,1023.87
2017-08-14T02:45:50.169Z,1023.87
2017-08-14T02:47:00.041Z,1023.89
2017-08-14T02:48:09.564Z,1023.86
2017-08-14T02:49:18.442Z,1023.87
2017-08-14T02:50:27.640Z,1023.9
2017-08-14T02:51:36.949Z,1023.86
2017-08-14T02:52:46.158Z,1023.87
2017-08-14T02:53:55.047Z,1023.87
2017-08-14T02:55:04.569Z,1023.89
2017-08-14T02:56:13.779Z,1023.87
2017-08-14T02:57:23.454Z,1023.87
2017-08-14T02:58:32.664Z,1023.79
2017-08-14T02:59:41.862Z,1023.85
2017-08-14T03:00:51.710Z,1023.82
2017-08-14T03:02:00.918Z,1023.84
2017-08-14T03:03:10.422Z,1023.85
2017-08-14T03:04:19.949Z,1023.84
2017-08-14T03:05:29.151Z,1023.82
2017-08-14T03:06:38.349Z,1023.81
2017-08-14T03:07:47.232Z,1023.84
2017-08-14T03:08:56.739Z,1023.81
2017-08-14T03:10:05.948Z,1023.8
2017-08-14T03:11:15.147Z,1023.79
2017-08-14T03:12:24.680Z,1023.79
2017-08-14T03:13:34.206Z,1023.79
2017-08-14T03:14:43.560Z,1023.79
2017-08-14T03:15:52.436Z,1023.78
2017-08-14T03:17:02.292Z,1023.8
2017-08-14T03:18:11.490Z,1023.81
2017-08-14T03:19:20.689Z,1023.78
2017-08-14T03:20:29.886Z,1023.84
2017-08-14T03:21:39.085Z,1023.83
2017-08-14T03:22:47.964Z,1023.77
2017-08-14T03:23:56.846Z,1023.77
2017-08-14T03:25:06.371Z,1023.83
2017-08-14T03:26:15.402Z,1023.8
2017-08-14T03:27:24.606Z,1023.81
2017-08-14T03:28:33.809Z,1023.78
2017-08-14T03:29:43.331Z,1023.79
2017-08-14T03:30:53.504Z,1023.8
2017-08-14T03:32:03.989Z,1023.79
2017-08-14T03:33:13.185Z,1023.79
2017-08-14T03:34:22.386Z,1023.83
2017-08-14T03:35:31.584Z,1023.83
2017-08-14T03:36:41.106Z,1023.84
2017-08-14T03:37:50.783Z,1023.86
2017-08-14T03:38:59.663Z,1023.87
2017-08-14T03:40:09.192Z,1023.85
2017-08-14T03:41:19.042Z,1023.84
2017-08-14T03:42:28.243Z,1023.81
2017-08-14T03:43:37.721Z,1023.82
2017-08-14T03:44:47.577Z,1023.85
2017-08-14T03:45:56.778Z,1023.78
2017-08-14T03:47:06.642Z,1023.85
2017-08-14T03:48:16.174Z,1023.82
2017-08-14T03:49:25.676Z,1023.86
2017-08-14T03:50:35.201Z,1023.84
2017-08-14T03:51:44.405Z,1023.83
2017-08-14T03:52:53.603Z,1023.87
2017-08-14T03:54:03.449Z,1023.9
2017-08-14T03:55:12.978Z,1023.94
2017-08-14T03:56:21.858Z,1023.94
2017-08-14T03:57:31.702Z,1023.92
2017-08-14T03:58:41.224Z,1023.96
2017-08-14T03:59:50.102Z,1023.98
2017-08-14T04:00:59.449Z,1023.95
2017-08-14T04:02:09.294Z,1023.89
2017-08-14T04:03:18.493Z,1023.93
2017-08-14T04:04:27.699Z,1023.9
2017-08-14T04:05:37.224Z,1023.94
2017-08-14T04:06:46.757Z,1023.91
2017-08-14T04:07:55.963Z,1023.91
2017-08-14T04:09:05.163Z,1023.93
2017-08-14T04:10:14.688Z,1023.92
2017-08-14T04:11:23.888Z,1023.93
2017-08-14T04:12:33.460Z,1023.9
2017-08-14T04:13:42.659Z,1023.9
2017-08-14T04:14:51.538Z,1023.87
2017-08-14T04:16:01.064Z,1023.87
2017-08-14T04:17:10.262Z,1023.91
2017-08-14T04:18:19.191Z,1023.89
2017-08-14T04:19:28.727Z,1023.89
2017-08-14T04:20:37.927Z,1023.93
2017-08-14T04:21:46.807Z,1023.91
2017-08-14T04:22:55.685Z,1023.94
2017-08-14T04:24:04.994Z,1023.96
2017-08-14T04:25:14.526Z,1023.92
2017-08-14T04:26:23.724Z,1023.94
2017-08-14T04:27:33.572Z,1023.97
2017-08-14T04:28:42.772Z,1023.97
2017-08-14T04:29:52.125Z,1024.02
2017-08-14T04:31:01.325Z,1024.01
2017-08-14T04:32:10.523Z,1024.06
2017-08-14T04:33:20.051Z,1024.06
2017-08-14T04:34:29.250Z,1024.04
2017-08-14T04:35:38.272Z,1024.05
2017-08-14T04:36:47.482Z,1024.07
2017-08-14T04:37:56.684Z,1024.1
2017-08-14T04:39:05.560Z,1024.09
2017-08-14T04:40:14.438Z,1024.09
2017-08-14T04:41:23.421Z,1024.09
2017-08-14T04:42:32.303Z,1024.04
2017-08-14T04:43:41.510Z,1024.06
2017-08-14T04:44:51.068Z,1024.03
2017-08-14T04:46:00.592Z,1024.04
2017-08-14T04:47:10.220Z,1024.07
2017-08-14T04:48:19.429Z,1024.1
2017-08-14T04:49:28.634Z,1024.13
2017-08-14T04:50:37.835Z,1024.09
2017-08-14T04:51:47.684Z,1024.11
2017-08-14T04:52:56.662Z,1024.14
2017-08-14T04:54:06.510Z,1024.12
2017-08-14T04:55:15.708Z,1024.15
2017-08-14T04:56:24.587Z,1024.13
2017-08-14T04:57:33.793Z,1024.13
2017-08-14T04:58:43.005Z,1024.17
2017-08-14T04:59:52.530Z,1024.1
2017-08-14T05:01:01.406Z,1024.17
2017-08-14T05:02:10.943Z,1024.13
2017-08-14T05:03:20.470Z,1024.11
2017-08-14T05:04:29.347Z,1024.1
2017-08-14T05:05:38.229Z,1024.13
2017-08-14T05:06:47.435Z,1024.12
2017-08-14T05:07:56.965Z,1024.14
2017-08-14T05:09:06.169Z,1024.11
2017-08-14T05:10:15.380Z,1024.14
2017-08-14T05:11:24.583Z,1024.14
2017-08-14T05:12:33.787Z,1024.1
2017-08-14T05:13:42.986Z,1024.08
2017-08-14T05:14:52.508Z,1024.09
2017-08-14T05:16:02.357Z,1024.1
2017-08-14T05:17:11.557Z,1024.1
2017-08-14T05:18:21.084Z,1024.1
2017-08-14T05:19:30.446Z,1024.11
2017-08-14T05:20:39.653Z,1024.13
2017-08-14T05:21:49.189Z,1024.07
2017-08-14T05:22:59.044Z,1024.08
2017-08-14T05:24:08.248Z,1024.12
2017-08-14T05:25:17.450Z,1024.07
2017-08-14T05:26:26.332Z,1024.11
2017-08-14T05:27:35.542Z,1024.13
2017-08-14T05:28:45.325Z,1024.14
2017-08-14T05:29:54.367Z,1024.13
2017-08-14T05:31:03.774Z,1024.14
2017-08-14T05:32:13.304Z,1024.15
2017-08-14T05:33:22.835Z,1024.18
2017-08-14T05:34:32.039Z,1024.18
2017-08-14T05:35:41.240Z,1024.18
2017-08-14T05:36:50.443Z,1024.22
2017-08-14T05:37:59.649Z,1024.19
2017-08-14T05:39:08.538Z,1024.26
2017-08-14T05:40:18.068Z,1024.26
2017-08-14T05:41:27.848Z,1024.24
2017-08-14T05:42:37.375Z,1024.25
2017-08-14T05:43:46.906Z,1024.23
2017-08-14T05:44:56.433Z,1024.29
2017-08-14T05:46:05.634Z,1024.26
2017-08-14T05:47:14.990Z,1024.24
2017-08-14T05:48:24.218Z,1024.27
2017-08-14T05:49:33.092Z,1024.22
2017-08-14T05:50:42.291Z,1024.28
2017-08-14T05:51:51.496Z,1024.26
2017-08-14T05:53:01.076Z,1024.27
2017-08-14T05:54:10.278Z,1024.28
2017-08-14T05:55:19.813Z,1024.29
2017-08-14T05:56:28.694Z,1024.29
2017-08-14T05:57:37.895Z,1024.33
2017-08-14T05:58:46.774Z,1024.32
2017-08-14T05:59:55.986Z,1024.29
2017-08-14T06:01:05.522Z,1024.32
2017-08-14T06:02:14.721Z,1024.34
2017-08-14T06:03:24.259Z,1024.34
2017-08-14T06:04:33.689Z,1024.35
2017-08-14T06:05:43.214Z,1024.35
2017-08-14T06:06:52.440Z,1024.38
2017-08-14T06:08:01.322Z,1024.35
2017-08-14T06:09:11.179Z,1024.31
2017-08-14T06:10:20.487Z,1024.32
2017-08-14T06:11:30.016Z,1024.34
2017-08-14T06:12:39.550Z,1024.33
2017-08-14T06:13:48.434Z,1024.34
2017-08-14T06:14:57.639Z,1024.37
2017-08-14T06:16:07.596Z,1024.34
2017-08-14T06:17:16.811Z,1024.34
2017-08-14T06:18:26.015Z,1024.33
2017-08-14T06:19:35.554Z,1024.33
2017-08-14T06:20:44.448Z,1024.34
2017-08-14T06:21:53.476Z,1024.38
2017-08-14T06:23:03.329Z,1024.39
2017-08-14T06:24:12.857Z,1024.37
2017-08-14T06:25:22.058Z,1024.42
2017-08-14T06:26:31.262Z,1024.41
2017-08-14T06:27:40.295Z,1024.45
2017-08-14T06:28:49.824Z,1024.43
2017-08-14T06:29:59.350Z,1024.47
2017-08-14T06:31:08.886Z,1024.48
2017-08-14T06:32:18.111Z,1024.47
2017-08-14T06:33:27.478Z,1024.52
2017-08-14T06:34:36.685Z,1024.5
2017-08-14T06:35:45.577Z,1024.51
2017-08-14T06:36:54.801Z,1024.52
2017-08-14T06:38:04.007Z,1024.49
2017-08-14T06:39:13.962Z,1024.49
2017-08-14T06:40:23.507Z,1024.41
2017-08-14T06:41:33.039Z,1024.43
2017-08-14T06:42:41.918Z,1024.41
2017-08-14T06:43:51.447Z,1024.44
2017-08-14T06:45:01.030Z,1024.45
2017-08-14T06:46:10.235Z,1024.45
2017-08-14T06:47:19.119Z,1024.46
2017-08-14T06:48:28.326Z,1024.45
2017-08-14T06:49:37.530Z,1024.45
2017-08-14T06:50:46.465Z,1024.47
2017-08-14T06:51:55.345Z,1024.49
2017-08-14T06:53:04.877Z,1024.5
2017-08-14T06:54:14.089Z,1024.49
2017-08-14T06:55:23.947Z,1024.49
2017-08-14T06:56:33.483Z,1024.49
2017-08-14T06:57:42.684Z,1024.43
2017-08-14T06:58:51.567Z,1024.47
2017-08-14T07:00:01.103Z,1024.41
2017-08-14T07:01:10.632Z,1024.43
2017-08-14T07:02:19.980Z,1024.45
2017-08-14T07:03:29.508Z,1024.42
2017-08-14T07:04:39.361Z,1024.38
2017-08-14T07:05:49.275Z,1024.39
2017-08-14T07:06:59.123Z,1024.4
2017-08-14T07:08:08.652Z,1024.44
2017-08-14T07:09:17.531Z,1024.41
2017-08-14T07:10:27.067Z,1024.44
2017-08-14T07:11:36.596Z,1024.47
2017-08-14T07:12:45.482Z,1024.5
2017-08-14T07:13:54.689Z,1024.47
2017-08-14T07:15:03.897Z,1024.49
2017-08-14T07:16:13.431Z,1024.47
2017-08-14T07:17:22.316Z,1024.47
2017-08-14T07:18:31.841Z,1024.48
2017-08-14T07:19:41.025Z,1024.48
2017-08-14T07:20:50.227Z,1024.47
2017-08-14T07:21:59.774Z,1024.47
2017-08-14T07:23:08.979Z,1024.44
2017-08-14T07:24:18.509Z,1024.49
2017-08-14T07:25:27.774Z,1024.45
2017-08-14T07:26:37.313Z,1024.43
2017-08-14T07:27:46.521Z,1024.41
2017-08-14T07:28:55.404Z,1024.45
2017-08-14T07:30:04.935Z,1024.41
2017-08-14T07:31:14.713Z,1024.43
2017-08-14T07:32:23.916Z,1024.37
2017-08-14T07:33:33.443Z,1024.42
2017-08-14T07:34:42.649Z,1024.4
2017-08-14T07:35:52.837Z,1024.38
2017-08-14T07:37:02.669Z,1024.37
2017-08-14T07:38:12.524Z,1024.35
2017-08-14T07:39:22.050Z,1024.36
2017-08-14T07:40:32.226Z,1024.36
2017-08-14T07:41:42.080Z,1024.39
2017-08-14T07:42:51.910Z,1024.37
2017-08-14T07:44:01.779Z,1024.4
2017-08-14T07:45:10.658Z,1024.38
2017-08-14T07:46:19.866Z,1024.35
2017-08-14T07:47:29.396Z,1024.35
2017-08-14T07:48:38.752Z,1024.31
2017-08-14T07:49:47.639Z,1024.37
2017-08-14T07:50:56.546Z,1024.33
2017-08-14T07:52:06.409Z,1024.3
2017-08-14T07:53:15.941Z,1024.33
2017-08-14T07:54:25.458Z,1024.32
2017-08-14T07:55:35.316Z,1024.35
2017-08-14T07:56:44.520Z,1024.33
2017-08-14T07:57:54.381Z,1024.32
2017-08-14T07:59:03.612Z,1024.37
2017-08-14T08:00:13.520Z,1024.37
2017-08-14T08:01:22.450Z,1024.37
2017-08-14T08:02:31.340Z,1024.3
2017-08-14T08:03:40.545Z,1024.36
2017-08-14T08:04:49.755Z,1024.37
2017-08-14T08:05:59.317Z,1024.37
2017-08-14T08:07:08.529Z,1024.36
2017-08-14T08:08:17.738Z,1024.39
2017-08-14T08:09:26.625Z,1024.36
2017-08-14T08:10:36.166Z,1024.34
2017-08-14T08:11:46.184Z,1024.33
2017-08-14T08:12:55.397Z,1024.3
2017-08-14T08:14:04.927Z,1024.29
2017-08-14T08:15:14.138Z,1024.31
2017-08-14T08:16:23.665Z,1024.32
2017-08-14T08:17:33.019Z,1024.31
2017-08-14T08:18:41.900Z,1024.34
2017-08-14T08:19:51.117Z,1024.3
2017-08-14T08:21:00.647Z,1024.32
2017-08-14T08:22:10.179Z,1024.34
2017-08-14T08:23:19.493Z,1024.3
2017-08-14T08:24:29.687Z,1024.28
2017-08-14T08:25:39.216Z,1024.3
2017-08-14T08:26:48.100Z,1024.32
2017-08-14T08:27:57.627Z,1024.24
2017-08-14T08:29:07.632Z,1024.25
2017-08-14T08:30:16.842Z,1024.28
2017-08-14T08:31:26.056Z,1024.29
2017-08-14T08:32:34.934Z,1024.28
2017-08-14T08:33:43.814Z,1024.26
2017-08-14T08:34:53.497Z,1024.23
2017-08-14T08:36:02.705Z,1024.21
2017-08-14T08:37:12.246Z,1024.22
2017-08-14T08:38:21.455Z,1024.22
2017-08-14T08:39:30.677Z,1024.24
2017-08-14T08:40:39.616Z,1024.18
2017-08-14T08:41:49.153Z,1024.2
2017-08-14T08:42:58.360Z,1024.2
2017-08-14T08:44:07.570Z,1024.16
2017-08-14T08:45:16.456Z,1024.17
2017-08-14T08:46:26.090Z,1024.14
2017-08-14T08:47:35.617Z,1024.14
2017-08-14T08:48:44.499Z,1024.16
2017-08-14T08:49:54.353Z,1024.13
2017-08-14T08:51:03.898Z,1024.17
2017-08-14T08:52:14.320Z,1024.14
2017-08-14T08:53:23.525Z,1024.1
2017-08-14T08:54:33.053Z,1024.14
2017-08-14T08:55:43.231Z,1024.09
2017-08-14T08:56:52.765Z,1024.13
2017-08-14T08:58:02.671Z,1024.09
2017-08-14T08:59:11.554Z,1024.06
2017-08-14T09:00:21.086Z,1024.11
2017-08-14T09:01:30.632Z,1024.06
2017-08-14T09:02:39.845Z,1024.06
2017-08-14T09:03:49.309Z,1024.07
2017-08-14T09:04:58.522Z,1024.04
2017-08-14T09:06:08.386Z,1024.05
2017-08-14T09:07:17.930Z,1024.05
2017-08-14T09:08:27.468Z,1024.08
2017-08-14T09:09:36.734Z,1024.07
2017-08-14T09:10:45.940Z,1024.02
2017-08-14T09:11:55.794Z,1024.02
2017-08-14T09:13:05.653Z,1023.98
2017-08-14T09:14:15.188Z,1023.97
2017-08-14T09:15:25.098Z,1023.98
2017-08-14T09:16:34.963Z,1023.97
2017-08-14T09:17:44.830Z,1023.94
2017-08-14T09:18:54.693Z,1023.94
2017-08-14T09:20:04.873Z,1023.91
2017-08-14T09:21:14.472Z,1023.88
2017-08-14T09:22:24.049Z,1023.85
2017-08-14T09:23:33.257Z,1023.85
2017-08-14T09:24:43.131Z,1023.83
2017-08-14T09:25:52.353Z,1023.81
2017-08-14T09:27:02.783Z,1023.82
2017-08-14T09:28:11.999Z,1023.81
2017-08-14T09:29:21.857Z,1023.79
2017-08-14T09:30:31.730Z,1023.78
2017-08-14T09:31:40.939Z,1023.8
2017-08-14T09:32:49.872Z,1023.74
2017-08-14T09:33:59.405Z,1023.78
2017-08-14T09:35:08.949Z,1023.76
2017-08-14T09:36:18.827Z,1023.68
2017-08-14T09:37:28.042Z,1023.69
2017-08-14T09:38:37.999Z,1023.75
2017-08-14T09:39:47.528Z,1023.71
2017-08-14T09:40:57.094Z,1023.73
2017-08-14T09:42:06.966Z,1023.71
2017-08-14T09:43:16.821Z,1023.72
2017-08-14T09:44:27.078Z,1023.66
2017-08-14T09:45:36.289Z,1023.68
2017-08-14T09:46:46.152Z,1023.72
2017-08-14T09:47:55.361Z,1023.73
2017-08-14T09:49:04.893Z,1023.72
2017-08-14T09:50:14.845Z,1023.71
2017-08-14T09:51:24.704Z,1023.75
2017-08-14T09:52:34.238Z,1023.7
2017-08-14T09:53:44.424Z,1023.7
2017-08-14T09:54:53.957Z,1023.66
2017-08-14T09:56:03.542Z,1023.67
2017-08-14T09:57:13.072Z,1023.68
2017-08-14T09:58:22.286Z,1023.65
2017-08-14T09:59:31.501Z,1023.66
2017-08-14T10:00:40.759Z,1023.66
2017-08-14T10:01:50.773Z,1023.64
2017-08-14T10:03:00.661Z,1023.67
2017-08-14T10:04:09.866Z,1023.67
2017-08-14T10:05:19.070Z,1023.63
2017-08-14T10:06:28.603Z,1023.61
2017-08-14T10:07:39.082Z,1023.61
2017-08-14T10:08:48.610Z,1023.58
2017-08-14T10:09:57.831Z,1023.59
2017-08-14T10:11:07.053Z,1023.54
2017-08-14T10:12:16.738Z,1023.6
2017-08-14T10:13:27.075Z,1023.59
2017-08-14T10:14:36.604Z,1023.57
2017-08-14T10:15:45.490Z,1023.57
2017-08-14T10:16:55.023Z,1023.58
2017-08-14T10:18:04.878Z,1023.52
2017-08-14T10:19:14.242Z,1023.57
2017-08-14T10:20:23.777Z,1023.52
2017-08-14T10:21:33.634Z,1023.46
2017-08-14T10:22:42.849Z,1023.46
2017-08-14T10:23:52.063Z,1023.45
2017-08-14T10:25:01.100Z,1023.47
2017-08-14T10:26:11.279Z,1023.43
2017-08-14T10:27:20.165Z,1023.44
2017-08-14T10:28:29.698Z,1023.42
2017-08-14T10:29:38.925Z,1023.41
2017-08-14T10:30:48.860Z,1023.4
2017-08-14T10:31:58.401Z,1023.42
2017-08-14T10:33:07.934Z,1023.45
2017-08-14T10:34:17.464Z,1023.43
2017-08-14T10:35:27.322Z,1023.4
2017-08-14T10:36:37.277Z,1023.42
2017-08-14T10:37:46.808Z,1023.37
2017-08-14T10:38:55.698Z,1023.38
2017-08-14T10:40:04.906Z,1023.36
2017-08-14T10:41:14.126Z,1023.36
2017-08-14T10:42:23.183Z,1023.39
2017-08-14T10:43:33.044Z,1023.34
2017-08-14T10:44:41.930Z,1023.36
2017-08-14T10:45:51.785Z,1023.38
2017-08-14T10:47:01.318Z,1023.37
2017-08-14T10:48:11.179Z,1023.35
2017-08-14T10:49:20.710Z,1023.32
2017-08-14T10:50:30.242Z,1023.36
2017-08-14T10:51:40.097Z,1023.36
2017-08-14T10:52:49.309Z,1023.4
2017-08-14T10:53:59.213Z,1023.33
2017-08-14T10:55:09.068Z,1023.32
2017-08-14T10:56:18.283Z,1023.28
2017-08-14T10:57:28.138Z,1023.34
2017-08-14T10:58:37.668Z,1023.35
2017-08-14T10:59:46.928Z,1023.26
2017-08-14T11:00:56.141Z,1023.32
2017-08-14T11:02:06.321Z,1023.3
2017-08-14T11:03:15.529Z,1023.29
2017-08-14T11:04:24.741Z,1023.3
2017-08-14T11:05:34.599Z,1023.27
2017-08-14T11:06:43.807Z,1023.26
2017-08-14T11:07:53.660Z,1023.24
2017-08-14T11:09:03.835Z,1023.26
2017-08-14T11:10:13.696Z,1023.19
2017-08-14T11:11:23.002Z,1023.15
2017-08-14T11:12:32.217Z,1023.19
2017-08-14T11:13:41.431Z,1023.18
2017-08-14T11:14:50.337Z,1023.19
2017-08-14T11:15:59.870Z,1023.12
2017-08-14T11:17:09.565Z,1023.18
2017-08-14T11:18:18.455Z,1023.19
2017-08-14T11:19:27.341Z,1023.14
2017-08-14T11:20:36.874Z,1023.1
2017-08-14T11:21:46.087Z,1023.06
2017-08-14T11:22:55.406Z,1023.1
2017-08-14T11:24:04.945Z,1023.1
2017-08-14T11:25:13.832Z,1023.08
2017-08-14T11:26:23.047Z,1023.08
2017-08-14T11:27:32.905Z,1023.07
2017-08-14T11:28:42.262Z,1023.01
2017-08-14T11:29:52.122Z,1023.02
2017-08-14T11:31:01.332Z,1023
2017-08-14T11:32:10.869Z,1023.01
2017-08-14T11:33:21.049Z,1022.98
2017-08-14T11:34:30.255Z,1023.02
2017-08-14T11:35:39.465Z,1022.92
2017-08-14T11:36:49.000Z,1022.92
2017-08-14T11:37:58.208Z,1022.89
2017-08-14T11:39:07.750Z,1022.92
2017-08-14T11:40:17.505Z,1022.83
2017-08-14T11:41:26.732Z,1022.9
2017-08-14T11:42:36.600Z,1022.85
2017-08-14T11:43:45.811Z,1022.84
2017-08-14T11:44:54.702Z,1022.87
2017-08-14T11:46:04.290Z,1022.87
2017-08-14T11:47:13.526Z,1022.87
2017-08-14T11:48:23.707Z,1022.81
2017-08-14T11:49:33.241Z,1022.8
2017-08-14T11:50:42.777Z,1022.79
2017-08-14T11:51:51.812Z,1022.79
2017-08-14T11:53:01.031Z,1022.77
2017-08-14T11:54:10.887Z,1022.77
2017-08-14T11:55:20.420Z,1022.75
2017-08-14T11:56:30.285Z,1022.73
2017-08-14T11:57:39.894Z,1022.8
2017-08-14T11:58:50.082Z,1022.72
2017-08-14T11:59:59.617Z,1022.72
2017-08-14T12:01:08.830Z,1022.7
2017-08-14T12:02:18.694Z,1022.7
2017-08-14T12:03:27.968Z,1022.75
2017-08-14T12:04:37.499Z,1022.73
2017-08-14T12:05:47.361Z,1022.77
2017-08-14T12:06:56.899Z,1022.71
2017-08-14T12:08:06.110Z,1022.77
2017-08-14T12:09:16.593Z,1022.75
2017-08-14T12:10:25.806Z,1022.76
2017-08-14T12:11:35.339Z,1022.83
2017-08-14T12:12:44.228Z,1022.81
2017-08-14T12:13:54.419Z,1022.77
2017-08-14T12:15:04.668Z,1022.75
2017-08-14T12:16:14.210Z,1022.72
2017-08-14T12:17:23.421Z,1022.74
2017-08-14T12:18:32.323Z,1022.73
2017-08-14T12:19:41.215Z,1022.72
2017-08-14T12:20:50.481Z,1022.69
2017-08-14T12:22:00.024Z,1022.67
2017-08-14T12:23:09.562Z,1022.66
2017-08-14T12:24:19.437Z,1022.71
2017-08-14T12:25:29.302Z,1022.72
2017-08-14T12:26:38.919Z,1022.75
2017-08-14T12:27:48.459Z,1022.74
2017-08-14T12:28:58.002Z,1022.7
2017-08-14T12:30:07.221Z,1022.7
2017-08-14T12:31:16.114Z,1022.72
2017-08-14T12:32:25.763Z,1022.64
2017-08-14T12:33:34.980Z,1022.6
2017-08-14T12:34:44.520Z,1022.6
2017-08-14T12:35:54.384Z,1022.63
2017-08-14T12:37:03.285Z,1022.66
2017-08-14T12:38:12.657Z,1022.57
2017-08-14T12:39:22.848Z,1022.54
2017-08-14T12:40:32.393Z,1022.57
2017-08-14T12:41:41.928Z,1022.58
2017-08-14T12:42:51.469Z,1022.6
2017-08-14T12:44:00.789Z,1022.61
2017-08-14T12:45:10.337Z,1022.64
2017-08-14T12:46:19.552Z,1022.66
2017-08-14T12:47:29.098Z,1022.6
2017-08-14T12:48:38.645Z,1022.53
2017-08-14T12:49:47.964Z,1022.54
2017-08-14T12:50:57.197Z,1022.55
2017-08-14T12:52:07.069Z,1022.5
2017-08-14T12:53:16.608Z,1022.52
2017-08-14T12:54:26.148Z,1022.55
2017-08-14T12:55:35.365Z,1022.54
2017-08-14T12:56:44.273Z,1022.54
2017-08-14T12:57:53.496Z,1022.56
2017-08-14T12:59:03.057Z,1022.52
2017-08-14T13:00:12.920Z,1022.45
2017-08-14T13:01:22.762Z,1022.4
2017-08-14T13:02:31.661Z,1022.35
2017-08-14T13:03:41.214Z,1022.37
2017-08-14T13:04:50.435Z,1022.31
2017-08-14T13:05:59.977Z,1022.37
2017-08-14T13:07:09.895Z,1022.39
2017-08-14T13:08:19.116Z,1022.39
2017-08-14T13:09:28.342Z,1022.3
2017-08-14T13:10:37.590Z,1022.28
2017-08-14T13:11:46.806Z,1022.21
2017-08-14T13:12:56.411Z,1022.27
2017-08-14T13:14:05.651Z,1022.31
2017-08-14T13:15:14.549Z,1022.3
2017-08-14T13:16:24.088Z,1022.29
2017-08-14T13:17:33.629Z,1022.27
2017-08-14T13:18:43.149Z,1022.32
2017-08-14T13:19:52.365Z,1022.27
2017-08-14T13:21:01.584Z,1022.25
2017-08-14T13:22:11.128Z,1022.2
2017-08-14T13:23:21.012Z,1022.21
2017-08-14T13:24:30.441Z,1022.16
2017-08-14T13:25:39.761Z,1022.21
2017-08-14T13:26:49.651Z,1022.25
2017-08-14T13:27:59.524Z,1022.25
2017-08-14T13:29:09.389Z,1022.18
2017-08-14T13:30:18.758Z,1022.13
2017-08-14T13:31:27.662Z,1022.17
2017-08-14T13:32:36.888Z,1022.13
2017-08-14T13:33:45.784Z,1022.14
2017-08-14T13:34:55.329Z,1022.18
2017-08-14T13:36:04.928Z,1022.15
2017-08-14T13:37:14.801Z,1022.21
2017-08-14T13:38:24.025Z,1022.18
2017-08-14T13:39:33.581Z,1022.16
2017-08-14T13:40:42.480Z,1022.08
2017-08-14T13:41:51.710Z,1022.18
2017-08-14T13:43:00.624Z,1022.19
2017-08-14T13:44:09.848Z,1022.03
2017-08-14T13:45:19.397Z,1022.01
2017-08-14T13:46:28.625Z,1022.08
2017-08-14T13:47:37.993Z,1022.04
2017-08-14T13:48:46.890Z,1022.1
2017-08-14T13:49:56.109Z,1022.02
2017-08-14T13:51:05.330Z,1022.16
2017-08-14T13:52:14.879Z,1021.96
2017-08-14T13:53:24.351Z,1022
2017-08-14T13:54:33.904Z,1022
2017-08-14T13:55:43.126Z,1022.19
2017-08-14T13:56:52.990Z,1021.96
2017-08-14T13:58:02.533Z,1021.95
2017-08-14T13:59:12.222Z,1021.91
2017-08-14T14:00:22.410Z,1021.89
2017-08-14T14:01:31.973Z,1022.01
2017-08-14T14:02:41.521Z,1021.9